sensor_id;sensor_type;location;lat;lon;timestamp;P1;durP1;ratioP1;P2;durP2;ratioP2
72813;SDS011;60945;48.516;-2.768;2023-08-06T00:00:19;26.92;;;25.33;;
72813;SDS011;60945;48.516;-2.768;2023-08-06T00:02:44;28.92;;;27.02;;
72813;SDS011;60945;48.516;-2.768;2023-08-06T00:05:10;28.77;;;26.90;;
72813;SDS011;60945;48.516;-2.768;2023-08-06T00:07:36;28.23;;;26.58;;
72813;SDS011;60945;48.516;-2.768;2023-08-06T00:10:01;29.20;;;27.45;;
72813;SDS011;60945;48.516;-2.768;2023-08-06T00:12:27;22.80;;;21.17;;
72813;SDS011;60945;48.516;-2.768;2023-08-06T00:14:53;28.50;;;26.90;;
72813;SDS011;60945;48.516;-2.768;2023-08-06T00:17:18;26.80;;;25.35;;
72813;SDS011;60945;48.516;-2.768;2023-08-06T00:19:44;28.55;;;26.92;;
72813;SDS011;60945;48.516;-2.768;2023-08-06T00:22:10;27.75;;;26.08;;
72813;SDS011;60945;48.516;-2.768;2023-08-06T00:24:36;27.55;;;26.15;;
72813;SDS011;60945;48.516;-2.768;2023-08-06T00:27:02;27.42;;;25.77;;
72813;SDS011;60945;48.516;-2.768;2023-08-06T00:29:27;28.80;;;27.13;;
72813;SDS011;60945;48.516;-2.768;2023-08-06T00:31:53;30.13;;;28.30;;
72813;SDS011;60945;48.516;-2.768;2023-08-06T00:34:19;29.25;;;27.63;;
72813;SDS011;60945;48.516;-2.768;2023-08-06T00:36:44;29.20;;;27.52;;
72813;SDS011;60945;48.516;-2.768;2023-08-06T00:39:10;29.23;;;27.33;;
72813;SDS011;60945;48.516;-2.768;2023-08-06T00:41:36;29.60;;;27.73;;
72813;SDS011;60945;48.516;-2.768;2023-08-06T00:44:02;27.55;;;25.95;;
72813;SDS011;60945;48.516;-2.768;2023-08-06T00:46:27;27.25;;;25.42;;
72813;SDS011;60945;48.516;-2.768;2023-08-06T00:48:53;29.02;;;27.38;;
72813;SDS011;60945;48.516;-2.768;2023-08-06T00:51:20;30.38;;;28.45;;
72813;SDS011;60945;48.516;-2.768;2023-08-06T00:53:46;32.05;;;30.15;;
72813;SDS011;60945;48.516;-2.768;2023-08-06T00:56:13;30.55;;;28.65;;
72813;SDS011;60945;48.516;-2.768;2023-08-06T00:58:39;31.02;;;29.27;;
72813;SDS011;60945;48.516;-2.768;2023-08-06T01:01:05;29.52;;;27.75;;
72813;SDS011;60945;48.516;-2.768;2023-08-06T01:03:31;28.25;;;26.75;;
72813;SDS011;60945;48.516;-2.768;2023-08-06T01:05:57;29.73;;;27.67;;
72813;SDS011;60945;48.516;-2.768;2023-08-06T01:08:28;29.40;;;27.58;;
72813;SDS011;60945;48.516;-2.768;2023-08-06T01:14:00;30.70;;;28.48;;
72813;SDS011;60945;48.516;-2.768;2023-08-06T01:16:33;28.20;;;26.58;;
72813;SDS011;60945;48.516;-2.768;2023-08-06T01:18:59;29.42;;;27.83;;
72813;SDS011;60945;48.516;-2.768;2023-08-06T01:21:25;30.25;;;28.27;;
72813;SDS011;60945;48.516;-2.768;2023-08-06T01:23:51;29.92;;;27.88;;
72813;SDS011;60945;48.516;-2.768;2023-08-06T01:26:24;31.25;;;29.13;;
72813;SDS011;60945;48.516;-2.768;2023-08-06T01:29:05;30.23;;;28.15;;
72813;SDS011;60945;48.516;-2.768;2023-08-06T01:31:46;29.13;;;27.65;;
72813;SDS011;60945;48.516;-2.768;2023-08-06T01:34:22;30.92;;;28.90;;
72813;SDS011;60945;48.516;-2.768;2023-08-06T01:36:52;31.90;;;30.05;;
72813;SDS011;60945;48.516;-2.768;2023-08-06T01:39:18;30.25;;;28.27;;
72813;SDS011;60945;48.516;-2.768;2023-08-06T01:41:47;31.63;;;29.15;;
72813;SDS011;60945;48.516;-2.768;2023-08-06T01:44:13;29.73;;;27.58;;
72813;SDS011;60945;48.516;-2.768;2023-08-06T01:46:39;28.67;;;26.70;;
72813;SDS011;60945;48.516;-2.768;2023-08-06T01:49:05;28.85;;;26.83;;
72813;SDS011;60945;48.516;-2.768;2023-08-06T01:51:31;27.80;;;26.02;;
72813;SDS011;60945;48.516;-2.768;2023-08-06T01:53:56;32.80;;;30.85;;
72813;SDS011;60945;48.516;-2.768;2023-08-06T01:56:22;31.38;;;29.33;;
72813;SDS011;60945;48.516;-2.768;2023-08-06T01:58:48;30.48;;;28.58;;
72813;SDS011;60945;48.516;-2.768;2023-08-06T02:01:13;30.55;;;28.75;;
72813;SDS011;60945;48.516;-2.768;2023-08-06T02:03:39;30.00;;;28.08;;
72813;SDS011;60945;48.516;-2.768;2023-08-06T02:06:04;32.22;;;30.20;;
72813;SDS011;60945;48.516;-2.768;2023-08-06T02:08:30;31.67;;;29.42;;
72813;SDS011;60945;48.516;-2.768;2023-08-06T02:10:56;32.95;;;30.77;;
72813;SDS011;60945;48.516;-2.768;2023-08-06T02:13:23;32.47;;;30.58;;
72813;SDS011;60945;48.516;-2.768;2023-08-06T02:15:49;27.45;;;25.60;;
72813;SDS011;60945;48.516;-2.768;2023-08-06T02:18:14;27.73;;;25.95;;
72813;SDS011;60945;48.516;-2.768;2023-08-06T02:20:41;31.25;;;29.48;;
72813;SDS011;60945;48.516;-2.768;2023-08-06T02:23:07;32.78;;;30.73;;
72813;SDS011;60945;48.516;-2.768;2023-08-06T02:25:33;33.58;;;31.50;;
72813;SDS011;60945;48.516;-2.768;2023-08-06T02:27:58;31.33;;;29.45;;
72813;SDS011;60945;48.516;-2.768;2023-08-06T02:30:24;31.55;;;29.88;;
72813;SDS011;60945;48.516;-2.768;2023-08-06T02:32:50;31.08;;;29.42;;
72813;SDS011;60945;48.516;-2.768;2023-08-06T02:35:15;30.88;;;29.20;;
72813;SDS011;60945;48.516;-2.768;2023-08-06T02:37:41;32.83;;;30.65;;
72813;SDS011;60945;48.516;-2.768;2023-08-06T02:40:07;31.05;;;28.77;;
72813;SDS011;60945;48.516;-2.768;2023-08-06T02:42:33;31.52;;;29.40;;
72813;SDS011;60945;48.516;-2.768;2023-08-06T02:44:58;30.63;;;28.73;;
72813;SDS011;60945;48.516;-2.768;2023-08-06T02:47:24;30.77;;;28.88;;
72813;SDS011;60945;48.516;-2.768;2023-08-06T02:49:50;34.00;;;31.83;;
72813;SDS011;60945;48.516;-2.768;2023-08-06T02:52:15;32.00;;;29.65;;
72813;SDS011;60945;48.516;-2.768;2023-08-06T02:54:42;30.25;;;28.13;;
72813;SDS011;60945;48.516;-2.768;2023-08-06T02:57:08;34.03;;;32.05;;
72813;SDS011;60945;48.516;-2.768;2023-08-06T02:59:33;31.83;;;29.92;;
72813;SDS011;60945;48.516;-2.768;2023-08-06T03:01:59;31.50;;;29.75;;
72813;SDS011;60945;48.516;-2.768;2023-08-06T03:04:24;31.48;;;29.25;;
72813;SDS011;60945;48.516;-2.768;2023-08-06T03:06:50;31.27;;;29.10;;
72813;SDS011;60945;48.516;-2.768;2023-08-06T03:09:19;31.65;;;29.38;;
72813;SDS011;60945;48.516;-2.768;2023-08-06T03:11:45;30.88;;;28.70;;
72813;SDS011;60945;48.516;-2.768;2023-08-06T03:14:10;30.60;;;28.83;;
72813;SDS011;60945;48.516;-2.768;2023-08-06T03:16:36;30.40;;;28.35;;
72813;SDS011;60945;48.516;-2.768;2023-08-06T03:19:01;30.85;;;28.80;;
72813;SDS011;60945;48.516;-2.768;2023-08-06T03:21:27;33.08;;;30.27;;
72813;SDS011;60945;48.516;-2.768;2023-08-06T03:23:53;28.50;;;26.58;;
72813;SDS011;60945;48.516;-2.768;2023-08-06T03:26:18;31.45;;;29.30;;
72813;SDS011;60945;48.516;-2.768;2023-08-06T03:28:44;33.08;;;30.65;;
72813;SDS011;60945;48.516;-2.768;2023-08-06T03:31:10;32.30;;;30.30;;
72813;SDS011;60945;48.516;-2.768;2023-08-06T03:33:35;33.47;;;31.42;;
72813;SDS011;60945;48.516;-2.768;2023-08-06T03:36:01;30.50;;;28.27;;
72813;SDS011;60945;48.516;-2.768;2023-08-06T03:38:27;27.33;;;25.00;;
72813;SDS011;60945;48.516;-2.768;2023-08-06T03:40:53;32.50;;;30.35;;
72813;SDS011;60945;48.516;-2.768;2023-08-06T03:43:19;13.95;;;9.75;;
72813;SDS011;60945;48.516;-2.768;2023-08-06T03:45:44;13.25;;;9.95;;
72813;SDS011;60945;48.516;-2.768;2023-08-06T03:48:10;10.98;;;9.48;;
72813;SDS011;60945;48.516;-2.768;2023-08-06T03:50:36;10.65;;;9.38;;
72813;SDS011;60945;48.516;-2.768;2023-08-06T03:53:02;16.13;;;9.40;;
72813;SDS011;60945;48.516;-2.768;2023-08-06T03:55:27;12.50;;;9.80;;
72813;SDS011;60945;48.516;-2.768;2023-08-06T03:57:53;10.18;;;9.23;;
72813;SDS011;60945;48.516;-2.768;2023-08-06T04:00:22;10.82;;;9.73;;
72813;SDS011;60945;48.516;-2.768;2023-08-06T04:02:47;13.57;;;9.68;;
72813;SDS011;60945;48.516;-2.768;2023-08-06T04:05:14;14.20;;;9.88;;
72813;SDS011;60945;48.516;-2.768;2023-08-06T04:07:39;13.50;;;10.68;;
72813;SDS011;60945;48.516;-2.768;2023-08-06T04:10:05;11.88;;;10.68;;
72813;SDS011;60945;48.516;-2.768;2023-08-06T04:12:31;12.20;;;10.55;;
72813;SDS011;60945;48.516;-2.768;2023-08-06T04:15:01;15.75;;;10.15;;
72813;SDS011;60945;48.516;-2.768;2023-08-06T04:17:27;15.95;;;10.30;;
72813;SDS011;60945;48.516;-2.768;2023-08-06T04:19:53;12.05;;;9.77;;
72813;SDS011;60945;48.516;-2.768;2023-08-06T04:22:20;13.02;;;10.63;;
72813;SDS011;60945;48.516;-2.768;2023-08-06T04:24:47;17.73;;;11.70;;
72813;SDS011;60945;48.516;-2.768;2023-08-06T04:27:13;20.38;;;11.00;;
72813;SDS011;60945;48.516;-2.768;2023-08-06T04:29:40;21.13;;;11.35;;
72813;SDS011;60945;48.516;-2.768;2023-08-06T04:32:06;16.52;;;10.43;;
72813;SDS011;60945;48.516;-2.768;2023-08-06T04:34:33;11.43;;;10.20;;
72813;SDS011;60945;48.516;-2.768;2023-08-06T04:36:59;11.48;;;10.40;;
72813;SDS011;60945;48.516;-2.768;2023-08-06T04:39:25;14.43;;;11.75;;
72813;SDS011;60945;48.516;-2.768;2023-08-06T04:41:51;14.05;;;11.52;;
72813;SDS011;60945;48.516;-2.768;2023-08-06T04:44:17;12.75;;;11.50;;
72813;SDS011;60945;48.516;-2.768;2023-08-06T04:46:43;12.65;;;11.27;;
72813;SDS011;60945;48.516;-2.768;2023-08-06T04:49:08;12.43;;;11.18;;
72813;SDS011;60945;48.516;-2.768;2023-08-06T04:51:34;11.68;;;10.07;;
72813;SDS011;60945;48.516;-2.768;2023-08-06T04:54:00;15.00;;;11.27;;
72813;SDS011;60945;48.516;-2.768;2023-08-06T04:56:25;15.43;;;11.45;;
72813;SDS011;60945;48.516;-2.768;2023-08-06T04:58:52;16.23;;;11.85;;
72813;SDS011;60945;48.516;-2.768;2023-08-06T05:01:17;14.65;;;11.70;;
72813;SDS011;60945;48.516;-2.768;2023-08-06T05:03:43;14.98;;;10.95;;
72813;SDS011;60945;48.516;-2.768;2023-08-06T05:06:09;14.55;;;10.60;;
72813;SDS011;60945;48.516;-2.768;2023-08-06T05:08:35;12.13;;;11.02;;
72813;SDS011;60945;48.516;-2.768;2023-08-06T05:11:01;14.18;;;10.90;;
72813;SDS011;60945;48.516;-2.768;2023-08-06T05:13:27;14.88;;;12.65;;
72813;SDS011;60945;48.516;-2.768;2023-08-06T05:15:53;14.82;;;11.13;;
72813;SDS011;60945;48.516;-2.768;2023-08-06T05:18:19;15.60;;;10.82;;
72813;SDS011;60945;48.516;-2.768;2023-08-06T05:20:45;13.30;;;10.93;;
72813;SDS011;60945;48.516;-2.768;2023-08-06T05:23:11;13.23;;;10.90;;
72813;SDS011;60945;48.516;-2.768;2023-08-06T05:25:39;11.93;;;10.57;;
72813;SDS011;60945;48.516;-2.768;2023-08-06T05:28:05;12.52;;;10.90;;
72813;SDS011;60945;48.516;-2.768;2023-08-06T05:30:31;11.90;;;10.23;;
72813;SDS011;60945;48.516;-2.768;2023-08-06T05:32:56;12.88;;;11.30;;
72813;SDS011;60945;48.516;-2.768;2023-08-06T05:35:22;11.60;;;10.50;;
72813;SDS011;60945;48.516;-2.768;2023-08-06T05:37:48;12.82;;;10.77;;
72813;SDS011;60945;48.516;-2.768;2023-08-06T05:40:15;11.27;;;10.38;;
72813;SDS011;60945;48.516;-2.768;2023-08-06T05:42:41;12.02;;;10.68;;
72813;SDS011;60945;48.516;-2.768;2023-08-06T05:45:07;12.40;;;10.85;;
72813;SDS011;60945;48.516;-2.768;2023-08-06T05:47:33;12.45;;;11.23;;
72813;SDS011;60945;48.516;-2.768;2023-08-06T05:49:58;14.52;;;11.10;;
72813;SDS011;60945;48.516;-2.768;2023-08-06T05:52:24;12.80;;;11.07;;
72813;SDS011;60945;48.516;-2.768;2023-08-06T05:54:50;11.48;;;10.40;;
72813;SDS011;60945;48.516;-2.768;2023-08-06T05:57:16;12.68;;;10.95;;
72813;SDS011;60945;48.516;-2.768;2023-08-06T05:59:42;13.57;;;11.60;;
72813;SDS011;60945;48.516;-2.768;2023-08-06T06:02:08;12.52;;;11.20;;
72813;SDS011;60945;48.516;-2.768;2023-08-06T06:04:34;11.85;;;10.65;;
72813;SDS011;60945;48.516;-2.768;2023-08-06T06:07:00;14.35;;;11.10;;
72813;SDS011;60945;48.516;-2.768;2023-08-06T06:09:25;14.07;;;11.27;;
72813;SDS011;60945;48.516;-2.768;2023-08-06T06:11:51;16.63;;;10.68;;
72813;SDS011;60945;48.516;-2.768;2023-08-06T06:14:17;13.45;;;12.02;;
72813;SDS011;60945;48.516;-2.768;2023-08-06T06:16:43;13.10;;;10.95;;
72813;SDS011;60945;48.516;-2.768;2023-08-06T06:19:10;11.20;;;10.23;;
72813;SDS011;60945;48.516;-2.768;2023-08-06T06:21:36;12.18;;;10.77;;
72813;SDS011;60945;48.516;-2.768;2023-08-06T06:24:03;14.07;;;10.48;;
72813;SDS011;60945;48.516;-2.768;2023-08-06T06:26:29;12.07;;;10.95;;
72813;SDS011;60945;48.516;-2.768;2023-08-06T06:28:55;11.80;;;10.70;;
72813;SDS011;60945;48.516;-2.768;2023-08-06T06:31:21;13.85;;;10.93;;
72813;SDS011;60945;48.516;-2.768;2023-08-06T06:33:46;11.52;;;10.35;;
72813;SDS011;60945;48.516;-2.768;2023-08-06T06:36:12;14.07;;;11.23;;
72813;SDS011;60945;48.516;-2.768;2023-08-06T06:38:38;18.42;;;11.10;;
72813;SDS011;60945;48.516;-2.768;2023-08-06T06:41:03;12.70;;;10.60;;
72813;SDS011;60945;48.516;-2.768;2023-08-06T06:43:29;15.75;;;10.35;;
72813;SDS011;60945;48.516;-2.768;2023-08-06T06:45:58;13.75;;;11.27;;
72813;SDS011;60945;48.516;-2.768;2023-08-06T06:48:29;14.60;;;10.20;;
72813;SDS011;60945;48.516;-2.768;2023-08-06T06:50:56;13.63;;;10.07;;
72813;SDS011;60945;48.516;-2.768;2023-08-06T06:53:22;12.27;;;10.95;;
72813;SDS011;60945;48.516;-2.768;2023-08-06T06:55:55;15.52;;;11.30;;
72813;SDS011;60945;48.516;-2.768;2023-08-06T06:58:28;10.32;;;9.48;;
72813;SDS011;60945;48.516;-2.768;2023-08-06T07:00:54;12.10;;;10.88;;
72813;SDS011;60945;48.516;-2.768;2023-08-06T07:03:20;11.00;;;9.95;;
72813;SDS011;60945;48.516;-2.768;2023-08-06T07:05:46;13.57;;;10.07;;
72813;SDS011;60945;48.516;-2.768;2023-08-06T07:08:11;10.50;;;9.63;;
72813;SDS011;60945;48.516;-2.768;2023-08-06T07:10:37;10.45;;;9.45;;
72813;SDS011;60945;48.516;-2.768;2023-08-06T07:13:03;11.90;;;9.98;;
72813;SDS011;60945;48.516;-2.768;2023-08-06T07:15:29;13.05;;;9.95;;
72813;SDS011;60945;48.516;-2.768;2023-08-06T07:17:54;10.55;;;9.52;;
72813;SDS011;60945;48.516;-2.768;2023-08-06T07:20:20;11.10;;;10.00;;
72813;SDS011;60945;48.516;-2.768;2023-08-06T07:22:46;10.82;;;9.73;;
72813;SDS011;60945;48.516;-2.768;2023-08-06T07:25:12;10.07;;;9.38;;
72813;SDS011;60945;48.516;-2.768;2023-08-06T07:27:38;11.55;;;9.63;;
72813;SDS011;60945;48.516;-2.768;2023-08-06T07:30:04;11.00;;;9.07;;
72813;SDS011;60945;48.516;-2.768;2023-08-06T07:32:30;17.42;;;9.27;;
72813;SDS011;60945;48.516;-2.768;2023-08-06T07:34:56;9.43;;;8.60;;
72813;SDS011;60945;48.516;-2.768;2023-08-06T07:37:25;10.93;;;9.13;;
72813;SDS011;60945;48.516;-2.768;2023-08-06T07:39:55;10.20;;;9.20;;
72813;SDS011;60945;48.516;-2.768;2023-08-06T07:42:21;9.75;;;8.55;;
72813;SDS011;60945;48.516;-2.768;2023-08-06T07:44:53;12.88;;;8.35;;
72813;SDS011;60945;48.516;-2.768;2023-08-06T07:47:20;8.93;;;8.10;;
72813;SDS011;60945;48.516;-2.768;2023-08-06T07:49:46;8.75;;;7.85;;
72813;SDS011;60945;48.516;-2.768;2023-08-06T07:52:12;10.10;;;7.63;;
72813;SDS011;60945;48.516;-2.768;2023-08-06T07:54:38;8.55;;;7.47;;
72813;SDS011;60945;48.516;-2.768;2023-08-06T07:57:03;10.52;;;7.60;;
72813;SDS011;60945;48.516;-2.768;2023-08-06T07:59:29;8.85;;;7.95;;
72813;SDS011;60945;48.516;-2.768;2023-08-06T08:01:55;8.25;;;7.45;;
72813;SDS011;60945;48.516;-2.768;2023-08-06T08:04:21;10.18;;;7.85;;
72813;SDS011;60945;48.516;-2.768;2023-08-06T08:06:47;7.55;;;6.93;;
72813;SDS011;60945;48.516;-2.768;2023-08-06T08:09:13;10.00;;;7.43;;
72813;SDS011;60945;48.516;-2.768;2023-08-06T08:11:39;8.35;;;7.55;;
72813;SDS011;60945;48.516;-2.768;2023-08-06T08:14:05;7.80;;;6.70;;
72813;SDS011;60945;48.516;-2.768;2023-08-06T08:16:31;7.45;;;6.82;;
72813;SDS011;60945;48.516;-2.768;2023-08-06T08:18:57;7.32;;;6.63;;
72813;SDS011;60945;48.516;-2.768;2023-08-06T08:21:22;8.20;;;6.72;;
72813;SDS011;60945;48.516;-2.768;2023-08-06T08:23:49;9.95;;;7.47;;
72813;SDS011;60945;48.516;-2.768;2023-08-06T08:26:15;7.63;;;6.90;;
72813;SDS011;60945;48.516;-2.768;2023-08-06T08:28:41;8.85;;;6.60;;
72813;SDS011;60945;48.516;-2.768;2023-08-06T08:31:10;8.52;;;7.18;;
72813;SDS011;60945;48.516;-2.768;2023-08-06T08:33:36;11.35;;;7.05;;
72813;SDS011;60945;48.516;-2.768;2023-08-06T08:36:02;7.65;;;6.93;;
72813;SDS011;60945;48.516;-2.768;2023-08-06T08:38:29;7.72;;;6.78;;
72813;SDS011;60945;48.516;-2.768;2023-08-06T08:40:54;7.57;;;6.90;;
72813;SDS011;60945;48.516;-2.768;2023-08-06T08:43:23;7.43;;;6.45;;
72813;SDS011;60945;48.516;-2.768;2023-08-06T08:45:50;6.88;;;6.28;;
72813;SDS011;60945;48.516;-2.768;2023-08-06T08:48:16;8.15;;;7.38;;
72813;SDS011;60945;48.516;-2.768;2023-08-06T08:50:44;7.55;;;6.85;;
72813;SDS011;60945;48.516;-2.768;2023-08-06T08:53:11;7.05;;;6.28;;
72813;SDS011;60945;48.516;-2.768;2023-08-06T08:55:39;6.70;;;6.10;;
72813;SDS011;60945;48.516;-2.768;2023-08-06T08:58:05;7.63;;;6.93;;
72813;SDS011;60945;48.516;-2.768;2023-08-06T09:00:31;7.20;;;6.60;;
72813;SDS011;60945;48.516;-2.768;2023-08-06T09:02:57;6.97;;;6.35;;
72813;SDS011;60945;48.516;-2.768;2023-08-06T09:05:24;7.15;;;6.55;;
72813;SDS011;60945;48.516;-2.768;2023-08-06T09:08:01;6.78;;;6.15;;
72813;SDS011;60945;48.516;-2.768;2023-08-06T09:10:28;7.60;;;6.90;;
72813;SDS011;60945;48.516;-2.768;2023-08-06T09:12:54;6.43;;;6.03;;
72813;SDS011;60945;48.516;-2.768;2023-08-06T09:15:25;6.70;;;6.10;;
72813;SDS011;60945;48.516;-2.768;2023-08-06T09:17:54;6.50;;;6.00;;
72813;SDS011;60945;48.516;-2.768;2023-08-06T09:20:20;6.68;;;6.10;;
72813;SDS011;60945;48.516;-2.768;2023-08-06T09:22:46;7.55;;;6.95;;
72813;SDS011;60945;48.516;-2.768;2023-08-06T09:25:22;7.20;;;6.60;;
72813;SDS011;60945;48.516;-2.768;2023-08-06T09:27:52;7.38;;;6.78;;
72813;SDS011;60945;48.516;-2.768;2023-08-06T09:30:31;6.13;;;5.57;;
72813;SDS011;60945;48.516;-2.768;2023-08-06T09:32:59;6.95;;;6.00;;
72813;SDS011;60945;48.516;-2.768;2023-08-06T09:35:27;6.88;;;6.28;;
72813;SDS011;60945;48.516;-2.768;2023-08-06T09:37:54;6.40;;;5.80;;
72813;SDS011;60945;48.516;-2.768;2023-08-06T09:40:31;6.53;;;5.93;;
72813;SDS011;60945;48.516;-2.768;2023-08-06T09:42:57;6.35;;;5.85;;
72813;SDS011;60945;48.516;-2.768;2023-08-06T09:45:31;6.57;;;5.88;;
72813;SDS011;60945;48.516;-2.768;2023-08-06T09:47:59;7.25;;;6.70;;
72813;SDS011;60945;48.516;-2.768;2023-08-06T09:50:32;7.65;;;6.50;;
72813;SDS011;60945;48.516;-2.768;2023-08-06T09:52:59;7.25;;;6.72;;
72813;SDS011;60945;48.516;-2.768;2023-08-06T09:55:25;7.32;;;6.82;;
72813;SDS011;60945;48.516;-2.768;2023-08-06T09:57:51;8.77;;;6.90;;
72813;SDS011;60945;48.516;-2.768;2023-08-06T10:00:18;7.53;;;6.93;;
72813;SDS011;60945;48.516;-2.768;2023-08-06T10:02:45;7.40;;;6.72;;
72813;SDS011;60945;48.516;-2.768;2023-08-06T10:05:11;7.38;;;6.82;;
72813;SDS011;60945;48.516;-2.768;2023-08-06T10:07:37;8.23;;;7.22;;
72813;SDS011;60945;48.516;-2.768;2023-08-06T10:10:05;7.88;;;7.18;;
72813;SDS011;60945;48.516;-2.768;2023-08-06T10:12:34;7.93;;;7.43;;
72813;SDS011;60945;48.516;-2.768;2023-08-06T10:15:05;7.25;;;6.65;;
72813;SDS011;60945;48.516;-2.768;2023-08-06T10:17:34;7.10;;;6.60;;
72813;SDS011;60945;48.516;-2.768;2023-08-06T10:20:02;7.00;;;6.40;;
72813;SDS011;60945;48.516;-2.768;2023-08-06T10:22:32;6.97;;;6.47;;
72813;SDS011;60945;48.516;-2.768;2023-08-06T10:24:58;7.97;;;7.38;;
72813;SDS011;60945;48.516;-2.768;2023-08-06T10:32:49;8.82;;;6.78;;
72813;SDS011;60945;48.516;-2.768;2023-08-06T10:35:29;7.40;;;6.90;;
72813;SDS011;60945;48.516;-2.768;2023-08-06T10:38:03;6.68;;;6.07;;
72813;SDS011;60945;48.516;-2.768;2023-08-06T10:40:31;7.60;;;6.90;;
72813;SDS011;60945;48.516;-2.768;2023-08-06T10:43:00;7.82;;;7.18;;
72813;SDS011;60945;48.516;-2.768;2023-08-06T10:45:27;8.52;;;7.93;;
72813;SDS011;60945;48.516;-2.768;2023-08-06T10:47:53;7.25;;;6.72;;
72813;SDS011;60945;48.516;-2.768;2023-08-06T10:50:23;8.10;;;7.40;;
72813;SDS011;60945;48.516;-2.768;2023-08-06T10:52:49;7.55;;;6.95;;
72813;SDS011;60945;48.516;-2.768;2023-08-06T10:55:28;7.70;;;7.13;;
72813;SDS011;60945;48.516;-2.768;2023-08-06T10:57:54;7.65;;;7.03;;
72813;SDS011;60945;48.516;-2.768;2023-08-06T11:00:21;7.47;;;6.97;;
72813;SDS011;60945;48.516;-2.768;2023-08-06T11:02:48;7.90;;;7.47;;
72813;SDS011;60945;48.516;-2.768;2023-08-06T11:05:15;7.30;;;6.70;;
72813;SDS011;60945;48.516;-2.768;2023-08-06T11:07:41;8.15;;;7.38;;
72813;SDS011;60945;48.516;-2.768;2023-08-06T11:10:09;7.22;;;6.70;;
72813;SDS011;60945;48.516;-2.768;2023-08-06T11:12:36;7.85;;;7.35;;
72813;SDS011;60945;48.516;-2.768;2023-08-06T11:15:02;7.70;;;7.20;;
72813;SDS011;60945;48.516;-2.768;2023-08-06T11:17:28;7.50;;;7.00;;
72813;SDS011;60945;48.516;-2.768;2023-08-06T11:19:55;7.45;;;6.85;;
72813;SDS011;60945;48.516;-2.768;2023-08-06T11:22:23;7.53;;;6.93;;
72813;SDS011;60945;48.516;-2.768;2023-08-06T11:24:49;7.85;;;7.35;;
72813;SDS011;60945;48.516;-2.768;2023-08-06T11:27:15;7.78;;;7.10;;
72813;SDS011;60945;48.516;-2.768;2023-08-06T11:29:42;6.65;;;6.25;;
72813;SDS011;60945;48.516;-2.768;2023-08-06T11:32:09;7.72;;;7.18;;
72813;SDS011;60945;48.516;-2.768;2023-08-06T11:34:35;6.70;;;6.20;;
72813;SDS011;60945;48.516;-2.768;2023-08-06T11:37:02;7.13;;;6.60;;
72813;SDS011;60945;48.516;-2.768;2023-08-06T11:39:31;7.95;;;7.22;;
72813;SDS011;60945;48.516;-2.768;2023-08-06T11:42:01;7.70;;;7.10;;
72813;SDS011;60945;48.516;-2.768;2023-08-06T11:44:31;7.50;;;7.10;;
72813;SDS011;60945;48.516;-2.768;2023-08-06T11:47:00;7.60;;;7.10;;
72813;SDS011;60945;48.516;-2.768;2023-08-06T11:49:37;7.60;;;7.03;;
72813;SDS011;60945;48.516;-2.768;2023-08-06T11:52:21;7.55;;;6.72;;
72813;SDS011;60945;48.516;-2.768;2023-08-06T11:57:29;8.20;;;7.65;;
72813;SDS011;60945;48.516;-2.768;2023-08-06T12:00:03;6.13;;;5.78;;
72813;SDS011;60945;48.516;-2.768;2023-08-06T12:02:33;7.03;;;6.53;;
72813;SDS011;60945;48.516;-2.768;2023-08-06T12:07:36;7.03;;;6.53;;
72813;SDS011;60945;48.516;-2.768;2023-08-06T12:10:03;6.50;;;5.90;;
72813;SDS011;60945;48.516;-2.768;2023-08-06T12:12:30;6.55;;;6.05;;
72813;SDS011;60945;48.516;-2.768;2023-08-06T12:14:56;9.32;;;7.35;;
72813;SDS011;60945;48.516;-2.768;2023-08-06T12:17:25;7.00;;;6.35;;
72813;SDS011;60945;48.516;-2.768;2023-08-06T12:19:51;6.82;;;6.32;;
72813;SDS011;60945;48.516;-2.768;2023-08-06T12:22:17;6.38;;;5.88;;
72813;SDS011;60945;48.516;-2.768;2023-08-06T12:24:43;6.60;;;6.20;;
72813;SDS011;60945;48.516;-2.768;2023-08-06T12:27:10;6.22;;;5.72;;
72813;SDS011;60945;48.516;-2.768;2023-08-06T12:29:37;6.57;;;6.13;;
72813;SDS011;60945;48.516;-2.768;2023-08-06T12:32:10;6.78;;;6.28;;
72813;SDS011;60945;48.516;-2.768;2023-08-06T12:34:40;7.50;;;7.00;;
72813;SDS011;60945;48.516;-2.768;2023-08-06T12:37:06;7.20;;;6.60;;
72813;SDS011;60945;48.516;-2.768;2023-08-06T12:39:32;6.95;;;6.45;;
72813;SDS011;60945;48.516;-2.768;2023-08-06T12:41:59;6.55;;;6.05;;
72813;SDS011;60945;48.516;-2.768;2023-08-06T12:44:28;6.30;;;5.80;;
72813;SDS011;60945;48.516;-2.768;2023-08-06T12:46:54;6.50;;;6.00;;
72813;SDS011;60945;48.516;-2.768;2023-08-06T12:49:20;6.13;;;5.72;;
72813;SDS011;60945;48.516;-2.768;2023-08-06T12:51:47;7.80;;;7.30;;
72813;SDS011;60945;48.516;-2.768;2023-08-06T12:54:13;8.15;;;7.65;;
72813;SDS011;60945;48.516;-2.768;2023-08-06T12:56:39;8.00;;;7.53;;
72813;SDS011;60945;48.516;-2.768;2023-08-06T12:59:04;7.00;;;6.50;;
72813;SDS011;60945;48.516;-2.768;2023-08-06T13:01:30;8.27;;;7.78;;
72813;SDS011;60945;48.516;-2.768;2023-08-06T13:03:56;7.70;;;7.28;;
72813;SDS011;60945;48.516;-2.768;2023-08-06T13:06:22;8.43;;;7.93;;
72813;SDS011;60945;48.516;-2.768;2023-08-06T13:08:48;8.25;;;7.75;;
72813;SDS011;60945;48.516;-2.768;2023-08-06T13:11:13;7.75;;;7.25;;
72813;SDS011;60945;48.516;-2.768;2023-08-06T13:13:39;8.98;;;8.48;;
72813;SDS011;60945;48.516;-2.768;2023-08-06T13:16:05;8.73;;;8.23;;
72813;SDS011;60945;48.516;-2.768;2023-08-06T13:18:30;9.25;;;8.65;;
72813;SDS011;60945;48.516;-2.768;2023-08-06T13:20:56;9.38;;;8.95;;
72813;SDS011;60945;48.516;-2.768;2023-08-06T13:23:22;9.63;;;9.18;;
72813;SDS011;60945;48.516;-2.768;2023-08-06T13:25:47;9.35;;;8.85;;
72813;SDS011;60945;48.516;-2.768;2023-08-06T13:28:13;10.00;;;9.48;;
72813;SDS011;60945;48.516;-2.768;2023-08-06T13:30:41;10.05;;;9.55;;
72813;SDS011;60945;48.516;-2.768;2023-08-06T13:33:10;9.90;;;9.40;;
72813;SDS011;60945;48.516;-2.768;2023-08-06T13:35:36;9.18;;;8.68;;
72813;SDS011;60945;48.516;-2.768;2023-08-06T13:38:02;9.05;;;8.65;;
72813;SDS011;60945;48.516;-2.768;2023-08-06T13:40:28;9.23;;;8.73;;
72813;SDS011;60945;48.516;-2.768;2023-08-06T13:42:55;9.27;;;8.88;;
72813;SDS011;60945;48.516;-2.768;2023-08-06T13:45:21;8.07;;;7.68;;
72813;SDS011;60945;48.516;-2.768;2023-08-06T13:47:46;8.80;;;8.30;;
72813;SDS011;60945;48.516;-2.768;2023-08-06T13:50:12;8.40;;;7.90;;
72813;SDS011;60945;48.516;-2.768;2023-08-06T13:52:38;10.05;;;9.55;;
72813;SDS011;60945;48.516;-2.768;2023-08-06T13:55:04;9.95;;;9.43;;
72813;SDS011;60945;48.516;-2.768;2023-08-06T13:57:31;11.27;;;10.75;;
72813;SDS011;60945;48.516;-2.768;2023-08-06T13:59:59;10.57;;;10.02;;
72813;SDS011;60945;48.516;-2.768;2023-08-06T14:02:25;9.55;;;9.05;;
72813;SDS011;60945;48.516;-2.768;2023-08-06T14:04:52;9.98;;;9.48;;
72813;SDS011;60945;48.516;-2.768;2023-08-06T14:07:18;9.75;;;9.25;;
72813;SDS011;60945;48.516;-2.768;2023-08-06T14:09:43;9.45;;;8.95;;
72813;SDS011;60945;48.516;-2.768;2023-08-06T14:12:09;10.48;;;9.98;;
72813;SDS011;60945;48.516;-2.768;2023-08-06T14:14:35;9.23;;;8.80;;
72813;SDS011;60945;48.516;-2.768;2023-08-06T14:17:01;8.93;;;8.43;;
72813;SDS011;60945;48.516;-2.768;2023-08-06T14:19:27;9.00;;;8.40;;
72813;SDS011;60945;48.516;-2.768;2023-08-06T14:21:53;10.70;;;10.10;;
72813;SDS011;60945;48.516;-2.768;2023-08-06T14:24:20;9.82;;;9.32;;
72813;SDS011;60945;48.516;-2.768;2023-08-06T14:26:46;8.43;;;8.02;;
72813;SDS011;60945;48.516;-2.768;2023-08-06T14:29:11;8.30;;;7.80;;
72813;SDS011;60945;48.516;-2.768;2023-08-06T14:31:38;8.77;;;8.27;;